Latest Weather Observations for Esperance

IDW60801

Issued at 6:04 pm WST Sunday 24 January 2021 (issued every 10 minutes, with the page automatically refreshed every 10 minutes)

About weather observations | Map of weather stations | Latest weather observations for WA | Other Formats
Station Details ID: 009789 Name: ESPERANCE Lat: -33.83 Lon: 121.89 Height: 25.0 m
Data from the previous 72 hours. | See also: Recent months at Esperance
Date/Time
WST
Temp
°C
App
Temp
°C
Dew
Point
°C
Rel
Hum
%
Delta-T
°C
Wind Press
QNH
hPa
Press
MSL
hPa
Rain since
9am
mm
Dir  Spd
km/h
Gust
km/h
Spd
kts
Gust
kts
24/06:00pm 20.5 19.4 14.2 67 3.7 SE 13 17 7 9 1005.1 1005.0 0.2
24/05:30pm 21.1 19.1 13.8 63 4.2 SSE 17 20 9 11 1005.1 1005.0 0.2
24/05:00pm 21.3 19.7 14.0 63 4.3 SE 15 19 8 10 1005.0 1004.9 0.2
24/04:30pm 21.1 18.9 14.5 66 3.9 SSE 19 24 10 13 1004.9 1004.8 0.2
24/04:00pm 21.0 18.5 14.2 65 4.0 SSE 20 26 11 14 1004.8 1004.7 0.2
24/03:30pm 21.4 18.9 14.1 63 4.2 S 20 28 11 15 1005.1 1005.0 0.2
24/03:00pm 21.6 19.1 14.0 62 4.4 S 20 26 11 14 1005.0 1004.9 0.2
24/02:30pm 22.4 19.9 14.0 59 4.9 S 20 30 11 16 1005.1 1005.0 0.2
24/02:00pm 22.3 20.0 14.7 62 4.5 S 20 30 11 16 1005.1 1005.0 0.2
24/01:30pm 21.8 18.5 12.9 57 5.1 S 22 30 12 16 1005.3 1005.2 0.2
24/01:00pm 22.3 19.7 13.9 59 4.9 S 20 28 11 15 1005.2 1005.1 0.2
24/12:30pm 22.4 20.2 14.3 60 4.8 S 19 26 10 14 1005.1 1005.0 0.2
24/12:00pm 21.6 20.3 14.7 65 4.1 SSE 15 20 8 11 1005.0 1004.9 0.2
24/11:30am 20.8 18.9 14.2 66 3.8 SSE 17 20 9 11 1005.1 1005.0 0.2
24/11:00am 20.6 19.1 14.3 67 3.7 SE 15 20 8 11 1005.1 1005.0 0.2
24/10:30am 20.8 19.8 14.7 68 3.6 SSE 13 20 7 11 1005.0 1004.9 0.2
24/10:00am 20.4 19.4 14.5 69 3.5 SSE 13 19 7 10 1005.3 1005.2 0.0
24/09:30am 20.0 19.4 14.6 71 3.2 SSE 11 15 6 8 1005.4 1005.3 0.0
24/09:00am 19.7 18.7 14.5 72 3.0 S 13 19 7 10 1005.5 1005.4 0.4
24/08:30am 19.2 18.2 14.7 75 2.6 S 13 17 7 9 1005.6 1005.5 0.4
24/08:00am 19.0 18.1 14.9 77 2.4 S 13 20 7 11 1005.6 1005.5 0.4
24/07:30am 19.4 18.3 15.3 77 2.4 S 15 20 8 11 1005.3 1005.2 0.4
24/07:00am 19.9 19.0 14.9 73 2.9 S 13 20 7 11 1005.2 1005.1 0.4
24/06:30am 19.3 18.4 14.8 75 2.6 SSW 13 20 7 11 1004.8 1004.7 0.4
24/06:00am 18.7 17.9 15.2 80 2.1 SSW 13 20 7 11 1004.5 1004.4 0.4
24/05:30am 18.6 17.9 15.5 82 1.8 SSW 13 22 7 12 1004.3 1004.2 0.4
24/05:00am 18.5 18.3 15.6 83 1.7 SW 11 17 6 9 1004.1 1004.0 0.4
24/04:35am 18.6 18.4 15.7 83 1.7 SW 11 17 6 9 1003.7 1003.6 0.4
24/04:30am 18.5 18.4 15.9 85 1.5 WSW 11 17 6 9 1003.8 1003.7 0.4
24/04:02am 18.6 19.3 16.2 86 1.4 SW 7 11 4 6 1003.3 1003.2 0.4
24/04:00am 18.5 19.2 16.1 86 1.4 SW 7 11 4 6 1003.3 1003.2 0.4
24/03:53am 18.5 18.8 16.1 86 1.4 SSW 9 13 5 7 1003.2 1003.1 0.4
24/03:30am 18.6 19.2 16.9 90 1.0 SW 9 15 5 8 1003.3 1003.2 0.4
24/03:00am 18.6 19.6 16.9 90 1.0 SW 7 11 4 6 1003.1 1003.0 0.4
24/02:30am 18.7 19.8 17.0 90 1.0 SW 7 11 4 6 1003.2 1003.1 0.4
24/02:00am 18.6 20.0 17.4 93 0.7 W 6 7 3 4 1003.1 1003.0 0.4
24/01:30am 18.4 19.7 17.6 95 0.5 WSW 7 9 4 5 1003.3 1003.2 0.4
24/01:24am 18.4 19.7 17.6 95 0.5 WSW 7 9 4 5 1003.3 1003.2 0.4
24/01:00am 18.3 19.1 17.3 94 0.6 W 9 11 5 6 1003.4 1003.3 0.4
24/12:30am 18.5 19.7 17.3 93 0.7 WSW 7 9 4 5 1003.2 1003.1 0.4
24/12:24am 18.6 19.4 17.4 93 0.7 WSW 9 13 5 7 1003.2 1003.1 0.4
24/12:00am 18.7 20.2 17.5 93 0.7 WSW 6 9 3 5 1003.1 1003.0 0.4
 
Date/Time
WST
Temp
°C
App
Temp
°C
Dew
Point
°C
Rel
Hum
%
Delta-T
°C
Wind Press
QNH
hPa
Press
MSL
hPa
Rain since
9am
mm
Dir  Spd
km/h
Gust
km/h
Spd
kts
Gust
kts
23/11:30pm 18.6 19.9 17.6 94 0.6 WSW 7 11 4 6 1002.9 1002.8 0.4
23/11:00pm 18.5 19.7 17.3 93 0.7 WSW 7 11 4 6 1003.0 1002.9 0.4
23/10:50pm 18.5 19.7 17.3 93 0.7 W 7 11 4 6 1003.1 1003.0 0.4
23/10:30pm 18.6 19.4 17.4 93 0.7 SW 9 15 5 8 1002.9 1002.8 0.4
23/10:00pm 18.7 19.5 17.2 91 0.9 SW 9 15 5 8 1003.3 1003.2 0.4
23/09:30pm 18.7 19.9 17.4 92 0.8 WSW 7 9 4 5 1003.6 1003.5 0.4
23/09:00pm 18.9 19.7 17.2 90 1.0 SW 9 13 5 7 1003.3 1003.2 0.4
23/08:30pm 19.0 19.7 17.1 89 1.2 W 9 13 5 7 1003.1 1003.0 0.4
23/08:00pm 19.1 19.8 17.1 88 1.2 W 9 13 5 7 1002.6 1002.5 0.4
23/07:30pm 19.4 19.5 17.4 88 1.2 WSW 13 19 7 10 1002.4 1002.3 0.4
23/07:00pm 19.6 19.3 17.4 87 1.4 WSW 15 22 8 12 1002.0 1001.9 0.4
23/06:31pm 20.0 20.6 17.6 86 1.5 WSW 11 15 6 8 1001.7 1001.6 0.4
23/06:30pm 20.1 20.7 17.7 86 1.5 W 11 15 6 8 1001.7 1001.6 0.4
23/06:00pm 20.1 21.1 17.7 86 1.5 WSW 9 17 5 9 1001.5 1001.4 0.4
23/05:30pm 20.9 21.2 17.9 83 1.9 WSW 13 20 7 11 1001.2 1001.1 0.4
23/05:00pm 21.9 22.1 18.5 81 2.1 WSW 15 24 8 13 1000.4 1000.3 0.4
23/04:30pm 22.0 22.8 19.0 83 1.9 SW 13 24 7 13 999.9 999.8 0.4
23/04:15pm 22.3 24.1 20.4 89 1.2 SW 11 17 6 9 1000.2 1000.1 0.4
23/04:00pm 21.3 23.9 20.5 95 0.5 W 7 15 4 8 1000.1 1000.0 0.4
23/03:31pm 19.9 20.0 19.2 96 0.4 SSW 17 28 9 15 999.7 999.6 0.4
23/03:30pm 19.8 19.5 19.1 96 0.4 SSW 19 28 10 15 999.6 999.5 0.4
23/03:10pm 20.8 20.1 18.6 87 1.4 SW 20 32 11 17 999.5 999.4 0.4
23/03:00pm 21.8 20.0 17.8 78 2.5 WSW 24 35 13 19 1000.3 1000.2 0.0
23/02:52pm 22.9 21.2 17.1 70 3.6 WSW 22 39 12 21 1000.5 1000.4 0.0
23/02:30pm 24.7 24.2 17.7 65 4.4 SSW 17 24 9 13 998.5 998.4 0.0
23/02:00pm 27.8 25.9 15.8 48 7.4 SSE 20 30 11 16 998.4 998.3 0.0
23/01:30pm 28.2 25.7 15.1 44 8.0 SSE 22 30 12 16 998.3 998.2 0.0
23/01:00pm 26.8 25.5 15.8 51 6.8 SSE 17 28 9 15 998.4 998.3 0.0
23/12:30pm 24.4 24.0 17.1 63 4.5 SE 15 19 8 10 999.2 999.1 0.0
23/12:00pm 26.6 25.8 16.2 52 6.4 SSE 15 22 8 12 999.0 998.9 0.0
23/11:30am 25.3 23.8 16.2 57 5.6 S 19 24 10 13 999.5 999.4 0.0
23/11:00am 25.6 25.4 17.5 61 5.1 S 15 19 8 10 999.7 999.6 0.0
23/10:30am 23.6 23.9 16.9 66 4.1 SSE 11 15 6 8 1000.1 1000.0 0.0
23/10:00am 24.0 25.1 17.0 65 4.3 SE 7 11 4 6 1000.3 1000.2 0.0
23/09:30am 23.4 24.4 16.9 67 4.0 SE 7 11 4 6 1000.1 1000.0 0.0
23/09:15am 22.5 23.3 17.2 72 3.3 SSE 9 11 5 6 1000.2 1000.1 0.0
23/09:00am 21.5 21.5 17.3 77 2.6 SSE 13 15 7 8 1000.4 1000.3 0.0
23/08:58am 21.2 21.5 17.0 77 2.6 SE 11 15 6 8 1000.4 1000.3 0.0
23/08:30am 22.8 24.4 16.8 69 3.7 ESE 4 9 2 5 1000.7 1000.6 0.0
23/08:00am 21.5 22.4 16.7 74 2.9 NNW 7 11 4 6 1000.7 1000.6 0.0
23/07:30am 20.9 21.4 16.5 76 2.7 W 9 19 5 10 1000.3 1000.2 0.0
23/07:00am 20.4 20.5 16.4 78 2.4 WSW 11 19 6 10 1000.9 1000.8 0.0
23/06:30am 19.8 19.4 16.1 79 2.2 W 13 20 7 11 1000.7 1000.6 0.0
23/06:00am 19.6 19.9 15.9 79 2.2 WNW 9 15 5 8 1000.7 1000.6 0.0
23/05:30am 19.3 19.4 15.6 79 2.2 WNW 9 13 5 7 1000.3 1000.2 0.0
23/05:00am 19.1 19.7 15.2 78 2.3 NNW 6 7 3 4 1000.2 1000.1 0.0
23/04:30am 19.3 20.2 15.2 77 2.4 WNW 4 9 2 5 999.8 999.7 0.0
23/04:00am 19.9 21.5 16.0 78 2.3 NNW 2 9 1 5 1000.0 999.9 0.0
23/03:30am 19.8 20.7 16.6 82 1.9 N 7 11 4 6 999.6 999.5 0.0
23/03:00am 19.8 22.1 16.8 83 1.8 CALM 0 0 0 0 999.8 999.7 0.0
23/02:30am 19.9 21.0 16.7 82 1.9 SE 6 7 3 4 1000.1 1000.0 0.0
23/02:00am 19.9 20.6 16.0 78 2.3 SSE 7 9 4 5 1000.5 1000.4 0.0
23/01:30am 20.0 20.6 15.8 77 2.5 SW 7 9 4 5 1000.8 1000.7 0.0
23/01:00am 20.3 21.2 16.1 77 2.5 SE 6 11 3 6 1001.2 1001.1 0.0
23/12:30am 20.4 20.7 15.0 71 3.2 ESE 7 13 4 7 1001.2 1001.1 0.0
23/12:00am 20.4 20.0 15.2 72 3.1 ENE 11 17 6 9 1001.9 1001.8 0.0
 
Date/Time
WST
Temp
°C
App
Temp
°C
Dew
Point
°C
Rel
Hum
%
Delta-T
°C
Wind Press
QNH
hPa
Press
MSL
hPa
Rain since
9am
mm
Dir  Spd
km/h
Gust
km/h
Spd
kts
Gust
kts
22/11:30pm 20.2 18.7 15.4 74 2.8 NE 17 24 9 13 1003.1 1003.0 0.0
22/11:00pm 19.4 19.1 15.5 78 2.3 E 11 15 6 8 1002.0 1001.9 0.0
22/10:30pm 19.5 19.0 15.8 79 2.2 E 13 17 7 9 1002.3 1002.2 0.0
22/10:00pm 19.3 19.3 16.2 82 1.9 ESE 11 15 6 8 1002.6 1002.5 0.0
22/09:30pm 19.5 18.4 16.3 82 1.9 ESE 17 20 9 11 1002.7 1002.6 0.0
22/09:00pm 19.6 18.6 16.6 83 1.8 ESE 17 24 9 13 1002.7 1002.6 0.0
22/08:30pm 19.9 18.6 16.9 83 1.8 ESE 19 26 10 14 1002.5 1002.4 0.0
22/08:00pm 20.0 18.5 16.8 82 1.9 ESE 20 28 11 15 1002.6 1002.5 0.0
22/07:30pm 20.4 18.0 16.4 78 2.4 ESE 24 32 13 17 1002.6 1002.5 0.0
22/07:00pm 21.0 19.5 16.4 75 2.8 ESE 19 24 10 13 1002.7 1002.6 0.0
22/06:30pm 21.2 18.8 16.4 74 2.9 SE 24 33 13 18 1002.5 1002.4 0.0
22/06:00pm 22.0 19.6 16.3 70 3.5 SE 24 35 13 19 1002.5 1002.4 0.0
22/05:30pm 22.5 19.3 16.3 68 3.8 SE 28 39 15 21 1002.6 1002.5 0.0
22/05:00pm 23.0 19.2 15.8 64 4.4 SE 30 39 16 21 1002.7 1002.6 0.0
22/04:30pm 23.6 20.9 15.6 61 4.8 SE 24 35 13 19 1003.0 1002.9 0.0
22/04:00pm 23.6 20.6 15.9 62 4.7 SE 26 33 14 18 1003.5 1003.4 0.0
22/03:30pm 23.1 19.0 15.9 64 4.4 SE 32 39 17 21 1003.9 1003.8 0.0
22/03:00pm 23.0 19.5 16.5 67 4.0 SSE 30 39 16 21 1004.5 1004.4 0.0
22/02:30pm 22.8 19.1 16.1 66 4.1 SSE 30 39 16 21 1004.6 1004.5 0.0
22/02:00pm 23.5 20.0 16.5 65 4.3 SSE 30 39 16 21 1005.3 1005.2 0.0
22/01:30pm 23.1 19.9 16.2 65 4.2 SSE 28 35 15 19 1005.7 1005.6 0.0
22/01:00pm 23.1 19.5 16.2 65 4.2 SSE 30 41 16 22 1006.0 1005.9 0.0
22/12:30pm 22.8 18.7 16.4 67 3.9 SSE 33 41 18 22 1006.5 1006.4 0.0
22/12:00pm 22.2 18.1 16.0 68 3.7 SSE 32 41 17 22 1007.0 1006.9 0.0
22/11:30am 22.5 18.9 16.3 68 3.8 SSE 30 39 16 21 1007.5 1007.4 0.0
22/11:00am 22.3 18.9 15.9 67 3.9 SSE 28 35 15 19 1008.0 1007.9 0.0
22/10:30am 22.7 20.3 16.3 67 3.9 SSE 24 33 13 18 1008.9 1008.8 0.0
22/10:00am 22.0 20.2 16.1 69 3.6 SSE 20 30 11 16 1009.5 1009.4 0.0
22/09:30am 22.3 20.7 16.6 70 3.5 SSE 20 30 11 16 1009.8 1009.7 0.0
22/09:00am 20.6 17.8 15.4 72 3.1 SSE 24 30 13 16 1010.0 1009.9 0.2
22/08:30am 20.6 18.9 15.8 74 2.9 SE 19 26 10 14 1010.4 1010.3 0.2
22/08:00am 20.8 19.1 15.8 73 3.0 SE 19 24 10 13 1010.6 1010.5 0.2
22/07:53am 20.6 18.9 15.8 74 2.9 SE 19 24 10 13 1010.5 1010.4 0.2
22/07:30am 20.3 18.9 15.5 74 2.8 SE 17 24 9 13 1011.0 1010.9 0.2
22/07:00am 19.3 17.5 15.6 79 2.2 SE 19 26 10 14 1011.1 1011.0 0.2
22/06:30am 18.9 17.4 15.4 80 2.1 SE 17 24 9 13 1010.8 1010.7 0.2
22/06:00am 18.7 17.2 15.4 81 1.9 SE 17 26 9 14 1011.0 1010.9 0.2
22/05:44am 18.6 17.1 15.3 81 1.9 SE 17 22 9 12 1011.0 1010.9 0.2
22/05:30am 18.5 17.4 15.4 82 1.8 ESE 15 22 8 12 1011.0 1010.9 0.2
22/05:00am 18.6 17.5 15.3 81 1.9 SE 15 22 8 12 1010.8 1010.7 0.2
22/04:30am 18.6 17.8 15.1 80 2.0 SE 13 20 7 11 1010.9 1010.8 0.2
22/04:00am 18.7 17.2 15.2 80 2.1 SE 17 22 9 12 1010.9 1010.8 0.2
22/03:30am 18.7 17.2 15.2 80 2.1 SE 17 20 9 11 1011.0 1010.9 0.2
22/03:00am 18.7 17.2 15.2 80 2.1 SE 17 20 9 11 1011.1 1011.0 0.2
22/02:52am 18.7 17.2 15.4 81 1.9 SE 17 20 9 11 1011.2 1011.1 0.2
22/02:30am 18.8 17.4 15.5 81 1.9 SE 17 24 9 13 1011.4 1011.3 0.2
22/02:00am 18.7 17.3 15.6 82 1.8 SE 17 22 9 12 1011.7 1011.6 0.2
22/01:30am 18.6 16.7 15.3 81 1.9 SE 19 26 10 14 1011.7 1011.6 0.2
22/01:00am 18.6 16.9 15.7 83 1.7 SSE 19 24 10 13 1011.9 1011.8 0.2
22/12:30am 18.5 16.7 15.6 83 1.7 SE 19 26 10 14 1011.9 1011.8 0.2
22/12:00am 18.6 17.6 15.5 82 1.8 SSE 15 20 8 11 1012.2 1012.1 0.2
 
Date/Time
WST
Temp
°C
App
Temp
°C
Dew
Point
°C
Rel
Hum
%
Delta-T
°C
Wind Press
QNH
hPa
Press
MSL
hPa
Rain since
9am
mm
Dir  Spd
km/h
Gust
km/h
Spd
kts
Gust
kts
21/11:30pm 18.6 17.1 15.3 81 1.9 SSE 17 24 9 13 1012.5 1012.4 0.2
21/11:00pm 18.6 17.2 15.5 82 1.8 SSE 17 22 9 12 1012.7 1012.6 0.2
21/10:30pm 18.7 18.0 15.4 81 1.9 SSE 13 19 7 10 1012.8 1012.8 0.2
21/10:00pm 18.8 17.7 15.3 80 2.1 SE 15 22 8 12 1013.3 1013.3 0.2
21/09:30pm 18.9 17.2 15.8 82 1.8 SE 19 24 10 13 1013.3 1013.3 0.2
21/09:00pm 19.0 17.1 15.7 81 2.0 SE 20 28 11 15 1013.2 1013.2 0.2
21/08:30pm 19.1 17.2 15.8 81 2.0 SSE 20 28 11 15 1012.9 1012.9 0.2
21/08:00pm 19.1 16.5 16.0 82 1.8 SE 24 32 13 17 1012.6 1012.5 0.2
21/07:30pm 19.2 16.9 15.7 80 2.1 SSE 22 30 12 16 1012.5 1012.4 0.2
21/07:00pm 19.2 16.3 16.1 82 1.9 SE 26 33 14 18 1012.2 1012.1 0.2
21/06:30pm 19.2 16.7 16.1 82 1.9 SSE 24 32 13 17 1011.9 1011.8 0.2

Other formats

Comma delimited format used in spreadsheet applications
http://www.bom.gov.au/fwo/IDW60801/IDW60801.94638.axf

JavaScript Object Notation format (JSON) in row-major order
http://www.bom.gov.au/fwo/IDW60801/IDW60801.94638.json

Data quality

Most of these data are generated automatically and are frequently updated. Quality checks on data are not normally performed. It is possible for incorrect values to appear. Refer to information at About Latest Weather Observations and please check the disclaimer before using these data.